sensor_id;sensor_type;location;lat;lon;timestamp;P1;durP1;ratioP1;P2;durP2;ratioP2
75732;SDS011;73508;47.424;19.400;2023-11-22T00:01:51;22.85;;;12.23;;
75732;SDS011;73508;47.424;19.400;2023-11-22T00:04:16;22.55;;;12.00;;
75732;SDS011;73508;47.424;19.400;2023-11-22T00:06:43;26.00;;;12.98;;
75732;SDS011;73508;47.424;19.400;2023-11-22T00:09:08;25.73;;;12.07;;
75732;SDS011;73508;47.424;19.400;2023-11-22T00:11:34;21.65;;;11.57;;
75732;SDS011;73508;47.424;19.400;2023-11-22T00:14:00;22.17;;;12.40;;
75732;SDS011;73508;47.424;19.400;2023-11-22T00:16:25;30.42;;;14.77;;
75732;SDS011;73508;47.424;19.400;2023-11-22T00:18:51;30.40;;;15.97;;
75732;SDS011;73508;47.424;19.400;2023-11-22T00:21:16;33.47;;;18.80;;
75732;SDS011;73508;47.424;19.400;2023-11-22T00:23:42;31.03;;;16.30;;
75732;SDS011;73508;47.424;19.400;2023-11-22T00:26:08;28.55;;;14.60;;
75732;SDS011;73508;47.424;19.400;2023-11-22T00:28:33;27.33;;;14.90;;
75732;SDS011;73508;47.424;19.400;2023-11-22T00:30:59;27.27;;;14.45;;
75732;SDS011;73508;47.424;19.400;2023-11-22T00:33:25;26.45;;;12.98;;
75732;SDS011;73508;47.424;19.400;2023-11-22T00:35:50;26.43;;;13.53;;
75732;SDS011;73508;47.424;19.400;2023-11-22T00:38:18;29.92;;;14.05;;
75732;SDS011;73508;47.424;19.400;2023-11-22T00:40:43;30.27;;;15.10;;
75732;SDS011;73508;47.424;19.400;2023-11-22T00:43:09;35.00;;;13.80;;
75732;SDS011;73508;47.424;19.400;2023-11-22T00:45:34;28.93;;;12.77;;
75732;SDS011;73508;47.424;19.400;2023-11-22T00:48:00;26.12;;;13.05;;
75732;SDS011;73508;47.424;19.400;2023-11-22T00:50:26;30.07;;;13.30;;
75732;SDS011;73508;47.424;19.400;2023-11-22T00:52:51;27.17;;;12.67;;
75732;SDS011;73508;47.424;19.400;2023-11-22T00:55:16;24.42;;;11.95;;
75732;SDS011;73508;47.424;19.400;2023-11-22T00:57:42;29.37;;;12.50;;
75732;SDS011;73508;47.424;19.400;2023-11-22T01:00:08;26.87;;;12.55;;
75732;SDS011;73508;47.424;19.400;2023-11-22T01:02:35;30.03;;;13.20;;
75732;SDS011;73508;47.424;19.400;2023-11-22T01:05:04;30.27;;;13.55;;
75732;SDS011;73508;47.424;19.400;2023-11-22T01:07:36;30.65;;;13.85;;
75732;SDS011;73508;47.424;19.400;2023-11-22T01:10:02;32.03;;;15.48;;
75732;SDS011;73508;47.424;19.400;2023-11-22T01:12:28;30.63;;;14.13;;
75732;SDS011;73508;47.424;19.400;2023-11-22T01:14:53;29.17;;;13.77;;
75732;SDS011;73508;47.424;19.400;2023-11-22T01:17:18;27.60;;;12.23;;
75732;SDS011;73508;47.424;19.400;2023-11-22T01:19:44;27.23;;;12.07;;
75732;SDS011;73508;47.424;19.400;2023-11-22T01:22:09;29.97;;;13.10;;
75732;SDS011;73508;47.424;19.400;2023-11-22T01:24:35;28.30;;;12.73;;
75732;SDS011;73508;47.424;19.400;2023-11-22T01:27:02;28.20;;;13.50;;
75732;SDS011;73508;47.424;19.400;2023-11-22T01:29:28;25.27;;;12.27;;
75732;SDS011;73508;47.424;19.400;2023-11-22T01:31:53;27.70;;;13.13;;
75732;SDS011;73508;47.424;19.400;2023-11-22T01:34:20;28.20;;;13.18;;
75732;SDS011;73508;47.424;19.400;2023-11-22T01:36:45;24.70;;;12.37;;
75732;SDS011;73508;47.424;19.400;2023-11-22T01:39:11;28.17;;;12.70;;
75732;SDS011;73508;47.424;19.400;2023-11-22T01:41:40;27.25;;;12.32;;
75732;SDS011;73508;47.424;19.400;2023-11-22T01:44:07;24.83;;;12.63;;
75732;SDS011;73508;47.424;19.400;2023-11-22T01:46:33;23.42;;;11.90;;
75732;SDS011;73508;47.424;19.400;2023-11-22T01:48:59;24.25;;;11.82;;
75732;SDS011;73508;47.424;19.400;2023-11-22T01:51:25;25.48;;;11.55;;
75732;SDS011;73508;47.424;19.400;2023-11-22T01:53:51;22.20;;;11.33;;
75732;SDS011;73508;47.424;19.400;2023-11-22T01:56:19;21.40;;;10.45;;
75732;SDS011;73508;47.424;19.400;2023-11-22T01:58:45;23.50;;;10.47;;
75732;SDS011;73508;47.424;19.400;2023-11-22T02:03:46;22.62;;;11.18;;
75732;SDS011;73508;47.424;19.400;2023-11-22T02:06:17;22.27;;;11.02;;
75732;SDS011;73508;47.424;19.400;2023-11-22T02:08:43;21.40;;;10.57;;
75732;SDS011;73508;47.424;19.400;2023-11-22T02:11:08;20.75;;;11.05;;
75732;SDS011;73508;47.424;19.400;2023-11-22T02:13:34;21.77;;;10.67;;
75732;SDS011;73508;47.424;19.400;2023-11-22T02:16:00;20.95;;;10.75;;
75732;SDS011;73508;47.424;19.400;2023-11-22T02:18:26;21.40;;;10.00;;
75732;SDS011;73508;47.424;19.400;2023-11-22T02:20:52;22.97;;;10.37;;
75732;SDS011;73508;47.424;19.400;2023-11-22T02:23:18;21.20;;;9.93;;
75732;SDS011;73508;47.424;19.400;2023-11-22T02:25:43;19.87;;;9.93;;
75732;SDS011;73508;47.424;19.400;2023-11-22T02:28:10;21.58;;;10.13;;
75732;SDS011;73508;47.424;19.400;2023-11-22T02:30:36;21.12;;;10.63;;
75732;SDS011;73508;47.424;19.400;2023-11-22T02:33:02;16.20;;;8.53;;
75732;SDS011;73508;47.424;19.400;2023-11-22T02:35:29;18.67;;;8.40;;
75732;SDS011;73508;47.424;19.400;2023-11-22T02:37:56;14.20;;;7.53;;
75732;SDS011;73508;47.424;19.400;2023-11-22T02:40:22;16.17;;;7.03;;
75732;SDS011;73508;47.424;19.400;2023-11-22T02:42:49;15.82;;;7.32;;
75732;SDS011;73508;47.424;19.400;2023-11-22T02:45:15;16.00;;;7.72;;
75732;SDS011;73508;47.424;19.400;2023-11-22T02:47:42;16.17;;;7.82;;
75732;SDS011;73508;47.424;19.400;2023-11-22T02:50:09;14.90;;;7.50;;
75732;SDS011;73508;47.424;19.400;2023-11-22T02:52:36;14.97;;;7.17;;
75732;SDS011;73508;47.424;19.400;2023-11-22T02:55:02;12.68;;;6.35;;
75732;SDS011;73508;47.424;19.400;2023-11-22T02:57:29;13.62;;;6.70;;
75732;SDS011;73508;47.424;19.400;2023-11-22T02:59:56;14.13;;;6.78;;
75732;SDS011;73508;47.424;19.400;2023-11-22T03:02:21;13.47;;;6.97;;
75732;SDS011;73508;47.424;19.400;2023-11-22T03:04:47;16.17;;;7.75;;
75732;SDS011;73508;47.424;19.400;2023-11-22T03:07:12;13.20;;;6.63;;
75732;SDS011;73508;47.424;19.400;2023-11-22T03:09:38;14.73;;;7.47;;
75732;SDS011;73508;47.424;19.400;2023-11-22T03:12:03;14.53;;;7.43;;
75732;SDS011;73508;47.424;19.400;2023-11-22T03:14:29;16.35;;;8.25;;
75732;SDS011;73508;47.424;19.400;2023-11-22T03:16:54;17.60;;;8.57;;
75732;SDS011;73508;47.424;19.400;2023-11-22T03:19:20;15.95;;;7.40;;
75732;SDS011;73508;47.424;19.400;2023-11-22T03:21:46;16.63;;;8.53;;
75732;SDS011;73508;47.424;19.400;2023-11-22T03:24:11;15.57;;;7.77;;
75732;SDS011;73508;47.424;19.400;2023-11-22T03:26:36;17.48;;;8.15;;
75732;SDS011;73508;47.424;19.400;2023-11-22T03:29:02;13.73;;;7.23;;
75732;SDS011;73508;47.424;19.400;2023-11-22T03:31:27;13.67;;;7.13;;
75732;SDS011;73508;47.424;19.400;2023-11-22T03:33:53;13.10;;;6.25;;
75732;SDS011;73508;47.424;19.400;2023-11-22T03:36:19;13.07;;;6.62;;
75732;SDS011;73508;47.424;19.400;2023-11-22T03:38:45;15.67;;;7.33;;
75732;SDS011;73508;47.424;19.400;2023-11-22T03:41:11;18.40;;;8.15;;
75732;SDS011;73508;47.424;19.400;2023-11-22T03:43:36;15.80;;;7.20;;
75732;SDS011;73508;47.424;19.400;2023-11-22T03:46:02;14.10;;;7.00;;
75732;SDS011;73508;47.424;19.400;2023-11-22T03:48:27;14.10;;;6.68;;
75732;SDS011;73508;47.424;19.400;2023-11-22T03:50:53;13.87;;;6.63;;
75732;SDS011;73508;47.424;19.400;2023-11-22T03:53:18;12.87;;;6.73;;
75732;SDS011;73508;47.424;19.400;2023-11-22T03:55:46;12.43;;;6.75;;
75732;SDS011;73508;47.424;19.400;2023-11-22T03:58:12;13.60;;;6.57;;
75732;SDS011;73508;47.424;19.400;2023-11-22T04:00:37;11.80;;;6.20;;
75732;SDS011;73508;47.424;19.400;2023-11-22T04:03:03;16.43;;;6.80;;
75732;SDS011;73508;47.424;19.400;2023-11-22T04:05:28;14.30;;;6.70;;
75732;SDS011;73508;47.424;19.400;2023-11-22T04:07:54;11.77;;;6.00;;
75732;SDS011;73508;47.424;19.400;2023-11-22T04:10:21;12.05;;;6.28;;
75732;SDS011;73508;47.424;19.400;2023-11-22T04:12:47;12.73;;;6.23;;
75732;SDS011;73508;47.424;19.400;2023-11-22T04:15:13;14.48;;;6.05;;
75732;SDS011;73508;47.424;19.400;2023-11-22T04:17:39;11.00;;;5.57;;
75732;SDS011;73508;47.424;19.400;2023-11-22T04:20:08;10.57;;;5.50;;
75732;SDS011;73508;47.424;19.400;2023-11-22T04:22:39;12.80;;;5.67;;
75732;SDS011;73508;47.424;19.400;2023-11-22T04:25:05;13.43;;;6.12;;
75732;SDS011;73508;47.424;19.400;2023-11-22T04:27:31;12.18;;;6.07;;
75732;SDS011;73508;47.424;19.400;2023-11-22T04:29:58;10.93;;;5.40;;
75732;SDS011;73508;47.424;19.400;2023-11-22T04:32:23;11.25;;;5.50;;
75732;SDS011;73508;47.424;19.400;2023-11-22T04:34:48;11.97;;;5.50;;
75732;SDS011;73508;47.424;19.400;2023-11-22T04:37:14;13.17;;;6.47;;
75732;SDS011;73508;47.424;19.400;2023-11-22T04:39:39;11.13;;;5.80;;
75732;SDS011;73508;47.424;19.400;2023-11-22T04:42:05;10.90;;;5.60;;
75732;SDS011;73508;47.424;19.400;2023-11-22T04:44:30;11.00;;;5.40;;
75732;SDS011;73508;47.424;19.400;2023-11-22T04:46:57;11.12;;;5.30;;
75732;SDS011;73508;47.424;19.400;2023-11-22T04:49:24;11.10;;;5.40;;
75732;SDS011;73508;47.424;19.400;2023-11-22T04:51:50;9.67;;;4.77;;
75732;SDS011;73508;47.424;19.400;2023-11-22T04:54:15;11.02;;;5.15;;
75732;SDS011;73508;47.424;19.400;2023-11-22T04:56:41;12.07;;;5.27;;
75732;SDS011;73508;47.424;19.400;2023-11-22T04:59:06;11.40;;;5.27;;
75732;SDS011;73508;47.424;19.400;2023-11-22T05:01:32;11.40;;;5.40;;
75732;SDS011;73508;47.424;19.400;2023-11-22T05:03:58;11.38;;;5.40;;
75732;SDS011;73508;47.424;19.400;2023-11-22T05:06:26;11.13;;;5.43;;
75732;SDS011;73508;47.424;19.400;2023-11-22T05:08:52;14.40;;;6.03;;
75732;SDS011;73508;47.424;19.400;2023-11-22T05:11:18;12.45;;;5.93;;
75732;SDS011;73508;47.424;19.400;2023-11-22T05:13:44;11.70;;;5.87;;
75732;SDS011;73508;47.424;19.400;2023-11-22T05:16:09;11.32;;;5.55;;
75732;SDS011;73508;47.424;19.400;2023-11-22T05:18:35;11.37;;;5.43;;
75732;SDS011;73508;47.424;19.400;2023-11-22T05:21:03;13.80;;;7.10;;
75732;SDS011;73508;47.424;19.400;2023-11-22T05:23:29;15.40;;;6.07;;
75732;SDS011;73508;47.424;19.400;2023-11-22T05:25:54;16.40;;;6.60;;
75732;SDS011;73508;47.424;19.400;2023-11-22T05:28:21;15.27;;;6.53;;
75732;SDS011;73508;47.424;19.400;2023-11-22T05:30:47;18.73;;;7.23;;
75732;SDS011;73508;47.424;19.400;2023-11-22T05:33:12;19.23;;;8.90;;
75732;SDS011;73508;47.424;19.400;2023-11-22T05:35:38;19.57;;;8.33;;
75732;SDS011;73508;47.424;19.400;2023-11-22T05:38:03;21.37;;;8.63;;
75732;SDS011;73508;47.424;19.400;2023-11-22T05:40:29;23.50;;;9.63;;
75732;SDS011;73508;47.424;19.400;2023-11-22T05:42:54;22.08;;;10.52;;
75732;SDS011;73508;47.424;19.400;2023-11-22T05:45:20;21.10;;;8.80;;
75732;SDS011;73508;47.424;19.400;2023-11-22T05:47:45;21.47;;;8.80;;
75732;SDS011;73508;47.424;19.400;2023-11-22T05:50:11;16.87;;;7.78;;
75732;SDS011;73508;47.424;19.400;2023-11-22T05:52:37;14.70;;;7.00;;
75732;SDS011;73508;47.424;19.400;2023-11-22T05:55:02;16.92;;;6.97;;
75732;SDS011;73508;47.424;19.400;2023-11-22T05:57:29;15.03;;;6.57;;
75732;SDS011;73508;47.424;19.400;2023-11-22T05:59:56;16.60;;;6.75;;
75732;SDS011;73508;47.424;19.400;2023-11-22T06:02:22;14.23;;;6.18;;
75732;SDS011;73508;47.424;19.400;2023-11-22T06:04:47;12.93;;;5.97;;
75732;SDS011;73508;47.424;19.400;2023-11-22T06:07:12;11.83;;;5.80;;
75732;SDS011;73508;47.424;19.400;2023-11-22T06:09:38;12.48;;;5.40;;
75732;SDS011;73508;47.424;19.400;2023-11-22T06:12:03;9.63;;;4.93;;
75732;SDS011;73508;47.424;19.400;2023-11-22T06:14:30;10.95;;;5.07;;
75732;SDS011;73508;47.424;19.400;2023-11-22T06:16:55;9.23;;;4.80;;
75732;SDS011;73508;47.424;19.400;2023-11-22T06:19:21;10.73;;;5.13;;
75732;SDS011;73508;47.424;19.400;2023-11-22T06:21:46;10.33;;;4.80;;
75732;SDS011;73508;47.424;19.400;2023-11-22T06:24:11;11.63;;;5.07;;
75732;SDS011;73508;47.424;19.400;2023-11-22T06:26:41;10.27;;;5.10;;
75732;SDS011;73508;47.424;19.400;2023-11-22T06:29:07;9.38;;;4.80;;
75732;SDS011;73508;47.424;19.400;2023-11-22T06:31:33;9.23;;;4.82;;
75732;SDS011;73508;47.424;19.400;2023-11-22T06:33:59;13.10;;;5.63;;
75732;SDS011;73508;47.424;19.400;2023-11-22T06:36:26;12.37;;;5.75;;
75732;SDS011;73508;47.424;19.400;2023-11-22T06:38:53;13.38;;;5.28;;
75732;SDS011;73508;47.424;19.400;2023-11-22T06:41:19;13.55;;;5.70;;
75732;SDS011;73508;47.424;19.400;2023-11-22T06:43:46;9.27;;;4.50;;
75732;SDS011;73508;47.424;19.400;2023-11-22T06:46:14;13.32;;;5.55;;
75732;SDS011;73508;47.424;19.400;2023-11-22T06:48:41;10.93;;;5.12;;
75732;SDS011;73508;47.424;19.400;2023-11-22T06:51:08;9.52;;;4.45;;
75732;SDS011;73508;47.424;19.400;2023-11-22T06:53:34;16.10;;;5.17;;
75732;SDS011;73508;47.424;19.400;2023-11-22T06:55:59;11.40;;;5.13;;
75732;SDS011;73508;47.424;19.400;2023-11-22T06:58:26;14.48;;;4.90;;
75732;SDS011;73508;47.424;19.400;2023-11-22T07:00:51;12.23;;;5.47;;
75732;SDS011;73508;47.424;19.400;2023-11-22T07:03:17;11.18;;;4.80;;
75732;SDS011;73508;47.424;19.400;2023-11-22T07:05:42;13.50;;;4.90;;
75732;SDS011;73508;47.424;19.400;2023-11-22T07:08:08;12.07;;;5.00;;
75732;SDS011;73508;47.424;19.400;2023-11-22T07:10:33;9.15;;;4.40;;
75732;SDS011;73508;47.424;19.400;2023-11-22T07:12:59;10.77;;;4.90;;
75732;SDS011;73508;47.424;19.400;2023-11-22T07:15:26;11.88;;;4.78;;
75732;SDS011;73508;47.424;19.400;2023-11-22T07:17:52;13.23;;;4.27;;
75732;SDS011;73508;47.424;19.400;2023-11-22T07:20:17;8.77;;;4.00;;
75732;SDS011;73508;47.424;19.400;2023-11-22T07:22:43;9.30;;;4.30;;
75732;SDS011;73508;47.424;19.400;2023-11-22T07:25:09;12.07;;;4.90;;
75732;SDS011;73508;47.424;19.400;2023-11-22T07:27:45;9.43;;;4.60;;
75732;SDS011;73508;47.424;19.400;2023-11-22T07:30:12;9.90;;;4.65;;
75732;SDS011;73508;47.424;19.400;2023-11-22T07:32:39;8.52;;;4.40;;
75732;SDS011;73508;47.424;19.400;2023-11-22T07:35:07;9.05;;;4.82;;
75732;SDS011;73508;47.424;19.400;2023-11-22T07:37:37;12.00;;;4.53;;
75732;SDS011;73508;47.424;19.400;2023-11-22T07:40:09;10.05;;;5.18;;
75732;SDS011;73508;47.424;19.400;2023-11-22T07:42:37;10.15;;;4.82;;
75732;SDS011;73508;47.424;19.400;2023-11-22T07:45:03;14.43;;;5.07;;
75732;SDS011;73508;47.424;19.400;2023-11-22T07:47:29;10.52;;;5.10;;
75732;SDS011;73508;47.424;19.400;2023-11-22T07:49:55;10.43;;;5.00;;
75732;SDS011;73508;47.424;19.400;2023-11-22T07:52:20;9.75;;;4.87;;
75732;SDS011;73508;47.424;19.400;2023-11-22T07:54:46;11.85;;;4.53;;
75732;SDS011;73508;47.424;19.400;2023-11-22T07:57:13;13.90;;;5.43;;
75732;SDS011;73508;47.424;19.400;2023-11-22T07:59:38;8.68;;;4.97;;
75732;SDS011;73508;47.424;19.400;2023-11-22T08:02:04;8.70;;;4.80;;
75732;SDS011;73508;47.424;19.400;2023-11-22T08:04:36;8.95;;;4.95;;
75732;SDS011;73508;47.424;19.400;2023-11-22T08:07:01;7.43;;;3.77;;
75732;SDS011;73508;47.424;19.400;2023-11-22T08:09:27;10.98;;;4.60;;
75732;SDS011;73508;47.424;19.400;2023-11-22T08:11:57;10.23;;;5.22;;
75732;SDS011;73508;47.424;19.400;2023-11-22T08:14:23;10.17;;;5.40;;
75732;SDS011;73508;47.424;19.400;2023-11-22T08:16:52;14.00;;;4.95;;
75732;SDS011;73508;47.424;19.400;2023-11-22T08:19:18;9.57;;;4.57;;
75732;SDS011;73508;47.424;19.400;2023-11-22T08:21:43;9.97;;;5.00;;
75732;SDS011;73508;47.424;19.400;2023-11-22T08:24:09;9.33;;;4.80;;
75732;SDS011;73508;47.424;19.400;2023-11-22T08:26:37;9.93;;;5.40;;
75732;SDS011;73508;47.424;19.400;2023-11-22T08:29:03;10.80;;;4.87;;
75732;SDS011;73508;47.424;19.400;2023-11-22T08:31:32;15.55;;;5.10;;
75732;SDS011;73508;47.424;19.400;2023-11-22T08:33:59;10.85;;;4.70;;
75732;SDS011;73508;47.424;19.400;2023-11-22T08:36:24;11.00;;;4.93;;
75732;SDS011;73508;47.424;19.400;2023-11-22T08:38:50;12.53;;;5.43;;
75732;SDS011;73508;47.424;19.400;2023-11-22T08:41:15;10.33;;;4.80;;
75732;SDS011;73508;47.424;19.400;2023-11-22T08:43:42;13.15;;;4.75;;
75732;SDS011;73508;47.424;19.400;2023-11-22T08:46:07;9.47;;;5.03;;
75732;SDS011;73508;47.424;19.400;2023-11-22T08:48:33;7.87;;;4.47;;
75732;SDS011;73508;47.424;19.400;2023-11-22T08:51:03;8.82;;;4.65;;
75732;SDS011;73508;47.424;19.400;2023-11-22T08:53:29;8.93;;;4.50;;
75732;SDS011;73508;47.424;19.400;2023-11-22T08:55:55;9.55;;;4.45;;
75732;SDS011;73508;47.424;19.400;2023-11-22T08:58:20;7.90;;;4.47;;
75732;SDS011;73508;47.424;19.400;2023-11-22T09:00:46;8.75;;;4.60;;
75732;SDS011;73508;47.424;19.400;2023-11-22T09:03:12;8.20;;;4.60;;
75732;SDS011;73508;47.424;19.400;2023-11-22T09:05:40;10.57;;;4.85;;
75732;SDS011;73508;47.424;19.400;2023-11-22T09:08:06;8.93;;;4.70;;
75732;SDS011;73508;47.424;19.400;2023-11-22T09:10:32;9.53;;;4.60;;
75732;SDS011;73508;47.424;19.400;2023-11-22T09:12:57;10.15;;;4.75;;
75732;SDS011;73508;47.424;19.400;2023-11-22T09:15:24;7.78;;;4.22;;
75732;SDS011;73508;47.424;19.400;2023-11-22T09:17:52;8.50;;;4.47;;
75732;SDS011;73508;47.424;19.400;2023-11-22T09:20:19;8.33;;;4.43;;
75732;SDS011;73508;47.424;19.400;2023-11-22T09:22:49;10.45;;;4.78;;
75732;SDS011;73508;47.424;19.400;2023-11-22T09:25:24;13.25;;;5.68;;
75732;SDS011;73508;47.424;19.400;2023-11-22T09:27:52;9.80;;;5.25;;
75732;SDS011;73508;47.424;19.400;2023-11-22T09:30:24;11.27;;;4.50;;
75732;SDS011;73508;47.424;19.400;2023-11-22T09:33:01;9.83;;;5.17;;
75732;SDS011;73508;47.424;19.400;2023-11-22T09:35:27;15.98;;;5.00;;
75732;SDS011;73508;47.424;19.400;2023-11-22T09:37:54;9.70;;;5.18;;
75732;SDS011;73508;47.424;19.400;2023-11-22T09:40:21;11.02;;;5.50;;
75732;SDS011;73508;47.424;19.400;2023-11-22T09:42:47;13.57;;;5.30;;
75732;SDS011;73508;47.424;19.400;2023-11-22T09:45:16;10.77;;;4.77;;
75732;SDS011;73508;47.424;19.400;2023-11-22T09:47:46;8.23;;;4.47;;
75732;SDS011;73508;47.424;19.400;2023-11-22T09:50:23;13.55;;;4.72;;
75732;SDS011;73508;47.424;19.400;2023-11-22T09:52:59;9.48;;;5.20;;
75732;SDS011;73508;47.424;19.400;2023-11-22T09:55:26;10.23;;;5.10;;
75732;SDS011;73508;47.424;19.400;2023-11-22T09:57:53;8.77;;;4.80;;
75732;SDS011;73508;47.424;19.400;2023-11-22T10:00:19;8.40;;;5.05;;
75732;SDS011;73508;47.424;19.400;2023-11-22T10:02:46;9.48;;;5.00;;
75732;SDS011;73508;47.424;19.400;2023-11-22T10:05:12;9.57;;;4.63;;
75732;SDS011;73508;47.424;19.400;2023-11-22T10:07:37;10.82;;;4.60;;
75732;SDS011;73508;47.424;19.400;2023-11-22T10:10:03;9.17;;;4.77;;
75732;SDS011;73508;47.424;19.400;2023-11-22T10:12:30;10.90;;;5.22;;
75732;SDS011;73508;47.424;19.400;2023-11-22T10:17:47;10.02;;;5.00;;
75732;SDS011;73508;47.424;19.400;2023-11-22T10:20:21;9.90;;;4.50;;
75732;SDS011;73508;47.424;19.400;2023-11-22T10:22:50;8.10;;;4.07;;
75732;SDS011;73508;47.424;19.400;2023-11-22T10:25:16;7.85;;;4.53;;
75732;SDS011;73508;47.424;19.400;2023-11-22T10:27:45;8.82;;;4.43;;
75732;SDS011;73508;47.424;19.400;2023-11-22T10:30:12;8.17;;;4.80;;
75732;SDS011;73508;47.424;19.400;2023-11-22T10:32:38;8.88;;;4.80;;
75732;SDS011;73508;47.424;19.400;2023-11-22T10:35:06;10.60;;;5.37;;
75732;SDS011;73508;47.424;19.400;2023-11-22T10:37:33;8.65;;;5.25;;
75732;SDS011;73508;47.424;19.400;2023-11-22T10:39:59;9.55;;;5.22;;
75732;SDS011;73508;47.424;19.400;2023-11-22T10:42:25;10.43;;;5.00;;
75732;SDS011;73508;47.424;19.400;2023-11-22T10:44:52;10.32;;;4.60;;
75732;SDS011;73508;47.424;19.400;2023-11-22T10:47:20;13.33;;;5.50;;
75732;SDS011;73508;47.424;19.400;2023-11-22T10:49:46;12.52;;;5.05;;
75732;SDS011;73508;47.424;19.400;2023-11-22T10:52:13;7.90;;;4.70;;
75732;SDS011;73508;47.424;19.400;2023-11-22T10:54:41;10.20;;;4.90;;
75732;SDS011;73508;47.424;19.400;2023-11-22T10:57:10;8.13;;;4.40;;
75732;SDS011;73508;47.424;19.400;2023-11-22T10:59:37;10.13;;;4.50;;
75732;SDS011;73508;47.424;19.400;2023-11-22T11:02:05;9.10;;;4.75;;
75732;SDS011;73508;47.424;19.400;2023-11-22T11:04:39;13.88;;;4.97;;
75732;SDS011;73508;47.424;19.400;2023-11-22T11:07:08;8.27;;;4.50;;
75732;SDS011;73508;47.424;19.400;2023-11-22T11:09:37;8.82;;;4.30;;
75732;SDS011;73508;47.424;19.400;2023-11-22T11:12:02;9.70;;;4.43;;
75732;SDS011;73508;47.424;19.400;2023-11-22T11:14:29;8.45;;;4.70;;
75732;SDS011;73508;47.424;19.400;2023-11-22T11:16:55;9.13;;;4.37;;
75732;SDS011;73508;47.424;19.400;2023-11-22T11:19:23;8.15;;;4.43;;
75732;SDS011;73508;47.424;19.400;2023-11-22T11:21:50;9.00;;;4.65;;
75732;SDS011;73508;47.424;19.400;2023-11-22T11:24:16;7.87;;;4.37;;
75732;SDS011;73508;47.424;19.400;2023-11-22T11:26:45;6.93;;;4.07;;
75732;SDS011;73508;47.424;19.400;2023-11-22T11:29:29;8.20;;;4.30;;
75732;SDS011;73508;47.424;19.400;2023-11-22T11:31:58;8.10;;;4.22;;
75732;SDS011;73508;47.424;19.400;2023-11-22T11:34:24;8.87;;;4.57;;
75732;SDS011;73508;47.424;19.400;2023-11-22T11:36:53;8.40;;;4.83;;
75732;SDS011;73508;47.424;19.400;2023-11-22T11:39:28;8.30;;;4.68;;
75732;SDS011;73508;47.424;19.400;2023-11-22T11:42:10;9.10;;;4.43;;
75732;SDS011;73508;47.424;19.400;2023-11-22T11:44:36;10.03;;;4.70;;
75732;SDS011;73508;47.424;19.400;2023-11-22T11:47:11;11.07;;;4.50;;
75732;SDS011;73508;47.424;19.400;2023-11-22T11:49:37;10.13;;;4.55;;
75732;SDS011;73508;47.424;19.400;2023-11-22T11:52:06;8.63;;;4.65;;
75732;SDS011;73508;47.424;19.400;2023-11-22T11:54:33;11.33;;;5.23;;
75732;SDS011;73508;47.424;19.400;2023-11-22T11:56:59;8.88;;;5.15;;
75732;SDS011;73508;47.424;19.400;2023-11-22T11:59:25;8.35;;;4.90;;
75732;SDS011;73508;47.424;19.400;2023-11-22T12:01:54;9.55;;;4.68;;
75732;SDS011;73508;47.424;19.400;2023-11-22T12:04:24;8.80;;;4.90;;
75732;SDS011;73508;47.424;19.400;2023-11-22T12:06:49;9.20;;;4.70;;
75732;SDS011;73508;47.424;19.400;2023-11-22T12:09:24;9.27;;;5.12;;
75732;SDS011;73508;47.424;19.400;2023-11-22T12:11:50;11.12;;;4.82;;
75732;SDS011;73508;47.424;19.400;2023-11-22T12:14:18;11.93;;;5.35;;
75732;SDS011;73508;47.424;19.400;2023-11-22T12:16:45;9.77;;;5.10;;
75732;SDS011;73508;47.424;19.400;2023-11-22T12:19:20;9.77;;;5.22;;
75732;SDS011;73508;47.424;19.400;2023-11-22T12:21:47;8.27;;;4.93;;
75732;SDS011;73508;47.424;19.400;2023-11-22T12:24:13;10.25;;;5.20;;
75732;SDS011;73508;47.424;19.400;2023-11-22T12:26:40;10.18;;;4.80;;
75732;SDS011;73508;47.424;19.400;2023-11-22T12:29:10;9.70;;;5.10;;
75732;SDS011;73508;47.424;19.400;2023-11-22T12:31:43;10.70;;;5.30;;
75732;SDS011;73508;47.424;19.400;2023-11-22T12:34:20;12.25;;;4.85;;
75732;SDS011;73508;47.424;19.400;2023-11-22T12:36:47;8.45;;;4.60;;
75732;SDS011;73508;47.424;19.400;2023-11-22T12:39:12;9.73;;;4.90;;
75732;SDS011;73508;47.424;19.400;2023-11-22T12:41:44;9.10;;;4.65;;
75732;SDS011;73508;47.424;19.400;2023-11-22T12:44:13;10.40;;;4.70;;
75732;SDS011;73508;47.424;19.400;2023-11-22T12:46:59;8.13;;;4.43;;
75732;SDS011;73508;47.424;19.400;2023-11-22T12:49:26;7.60;;;4.30;;
75732;SDS011;73508;47.424;19.400;2023-11-22T12:51:53;8.50;;;4.40;;
75732;SDS011;73508;47.424;19.400;2023-11-22T12:54:19;8.97;;;4.67;;
75732;SDS011;73508;47.424;19.400;2023-11-22T12:56:48;9.48;;;4.40;;
75732;SDS011;73508;47.424;19.400;2023-11-22T12:59:14;8.90;;;4.95;;
75732;SDS011;73508;47.424;19.400;2023-11-22T13:01:40;10.53;;;4.60;;
75732;SDS011;73508;47.424;19.400;2023-11-22T13:04:06;9.10;;;4.70;;
75732;SDS011;73508;47.424;19.400;2023-11-22T13:06:32;9.10;;;4.47;;
75732;SDS011;73508;47.424;19.400;2023-11-22T13:08:57;8.07;;;4.23;;
75732;SDS011;73508;47.424;19.400;2023-11-22T13:11:23;9.33;;;4.23;;
75732;SDS011;73508;47.424;19.400;2023-11-22T13:13:49;9.75;;;4.57;;
75732;SDS011;73508;47.424;19.400;2023-11-22T13:16:15;10.32;;;5.10;;
75732;SDS011;73508;47.424;19.400;2023-11-22T13:18:41;11.87;;;5.60;;
75732;SDS011;73508;47.424;19.400;2023-11-22T13:21:07;11.07;;;5.35;;
75732;SDS011;73508;47.424;19.400;2023-11-22T13:23:32;10.93;;;4.87;;
75732;SDS011;73508;47.424;19.400;2023-11-22T13:25:58;13.13;;;6.00;;
75732;SDS011;73508;47.424;19.400;2023-11-22T13:28:23;12.13;;;6.23;;
75732;SDS011;73508;47.424;19.400;2023-11-22T13:30:50;15.60;;;7.05;;
75732;SDS011;73508;47.424;19.400;2023-11-22T13:33:16;11.25;;;6.10;;
75732;SDS011;73508;47.424;19.400;2023-11-22T13:35:41;12.10;;;6.47;;
75732;SDS011;73508;47.424;19.400;2023-11-22T13:38:09;16.10;;;6.95;;
75732;SDS011;73508;47.424;19.400;2023-11-22T13:40:37;12.77;;;6.78;;
75732;SDS011;73508;47.424;19.400;2023-11-22T13:43:10;14.93;;;7.27;;
75732;SDS011;73508;47.424;19.400;2023-11-22T13:45:37;12.70;;;6.80;;
75732;SDS011;73508;47.424;19.400;2023-11-22T13:48:06;12.98;;;6.97;;
75732;SDS011;73508;47.424;19.400;2023-11-22T13:50:34;12.68;;;7.18;;
75732;SDS011;73508;47.424;19.400;2023-11-22T13:53:00;12.23;;;6.82;;
75732;SDS011;73508;47.424;19.400;2023-11-22T13:55:25;14.00;;;6.47;;
75732;SDS011;73508;47.424;19.400;2023-11-22T13:57:52;15.43;;;7.07;;
75732;SDS011;73508;47.424;19.400;2023-11-22T14:00:19;14.83;;;7.63;;
75732;SDS011;73508;47.424;19.400;2023-11-22T14:02:48;12.00;;;6.45;;
75732;SDS011;73508;47.424;19.400;2023-11-22T14:05:14;13.93;;;6.95;;
75732;SDS011;73508;47.424;19.400;2023-11-22T14:07:40;13.23;;;7.07;;
75732;SDS011;73508;47.424;19.400;2023-11-22T14:10:06;14.87;;;7.62;;
75732;SDS011;73508;47.424;19.400;2023-11-22T14:12:32;14.83;;;8.80;;
75732;SDS011;73508;47.424;19.400;2023-11-22T14:14:58;14.77;;;8.10;;
75732;SDS011;73508;47.424;19.400;2023-11-22T14:17:24;13.03;;;7.90;;
75732;SDS011;73508;47.424;19.400;2023-11-22T14:19:50;15.77;;;8.63;;
75732;SDS011;73508;47.424;19.400;2023-11-22T14:22:16;14.85;;;8.00;;
75732;SDS011;73508;47.424;19.400;2023-11-22T14:24:43;13.62;;;7.78;;
75732;SDS011;73508;47.424;19.400;2023-11-22T14:27:10;16.05;;;8.27;;